Time;durP1;ratioP1;P1;durP2;ratioP2;P2;SDS_P1;SDS_P2;PMS_P1;PMS_P2;Temp;Humidity;BMP_temperature;BMP_pressure;BME280_temperature;BME280_humidity;BME280_pressure;Samples;Min_cycle;Max_cycle;Signal;HPM_P1;HPM_P2
2023/01/29 00:01:46;;;;;;;;;;;-2.70;99.90;;;;;;5054507;28;19920;-75
2023/01/29 00:04:11;;;;;;;;;;;-2.70;99.90;;;;;;5056258;28;19909;-76
2023/01/29 00:06:38;;;;;;;;;;;-2.80;99.90;;;;;;5056010;28;19912;-75
2023/01/29 00:09:03;;;;;;;;;;;-2.70;99.90;;;;;;5055845;28;19917;-75
2023/01/29 00:11:30;;;;;;;;;;;-2.70;99.90;;;;;;5055802;28;19919;-75
2023/01/29 00:13:56;;;;;;;;;;;-2.80;99.90;;;;;;5055820;28;19920;-76
2023/01/29 00:16:22;;;;;;;;;;;-2.80;99.90;;;;;;5055523;28;19909;-75
2023/01/29 00:18:47;;;;;;;;;;;-2.80;99.90;;;;;;5055873;28;19912;-75
2023/01/29 00:21:15;;;;;;;;;;;-2.80;99.90;;;;;;5055442;28;19923;-76
2023/01/29 00:23:41;;;;;;;;;;;-2.80;99.90;;;;;;5055590;28;19908;-75
2023/01/29 00:26:06;;;;;;;;;;;-2.80;99.90;;;;;;5055383;28;20007;-75
2023/01/29 00:28:32;;;;;;;;;;;-2.90;99.90;;;;;;5053514;28;19916;-75
2023/01/29 00:30:57;;;;;;;;;;;-2.80;99.90;;;;;;5045624;28;20301;-75
2023/01/29 00:33:23;;;;;;;;;;;-2.80;99.90;;;;;;5034055;28;20012;-75
2023/01/29 00:35:48;;;;;;;;;;;-2.70;99.90;;;;;;5035641;28;19913;-75
2023/01/29 00:38:14;;;;;;;;;;;-2.70;99.90;;;;;;5034917;28;20262;-75
2023/01/29 00:46:08;;;;;;;;;;;-2.60;99.90;;;;;;5049668;28;20376;-76
2023/01/29 00:48:33;;;;;;;;;;;-2.60;99.90;;;;;;5054370;28;19913;-76
2023/01/29 00:50:59;;;;;;;;;;;-2.50;99.90;;;;;;5055624;28;19962;-76
2023/01/29 00:53:25;;;;;;;;;;;-2.50;99.90;;;;;;5055072;28;19913;-76
2023/01/29 00:55:50;;;;;;;;;;;-2.50;99.90;;;;;;5054973;28;19912;-76
2023/01/29 00:58:21;;;;;;;;;;;-2.50;99.90;;;;;;5055357;28;19924;-75
2023/01/29 01:00:50;;;;;;;;;;;-2.50;99.90;;;;;;5055196;28;19916;-75
2023/01/29 01:03:16;;;;;;;;;;;-2.50;99.90;;;;;;5054611;28;19954;-76
2023/01/29 01:05:42;;;;;;;;;;;-2.50;99.90;;;;;;5054830;28;19909;-75
2023/01/29 01:10:19;;;;;;;;;;;-2.50;99.90;;;;;;5054994;28;19931;-75
2023/01/29 01:10:57;;;;;;;;;;;-2.60;99.90;;;;;;5054560;28;19936;-75
2023/01/29 01:13:23;;;;;;;;;;;-2.60;99.90;;;;;;5054661;28;20288;-76
2023/01/29 01:15:49;;;;;;;;;;;-2.60;99.90;;;;;;5054705;28;19920;-75
2023/01/29 01:18:15;;;;;;;;;;;-2.60;99.90;;;;;;5036306;28;19940;-75
2023/01/29 01:20:41;;;;;;;;;;;-2.60;99.90;;;;;;5054543;28;19919;-75
2023/01/29 01:23:06;;;;;;;;;;;-2.70;99.90;;;;;;5054788;28;19920;-75
2023/01/29 01:25:32;;;;;;;;;;;-2.70;99.90;;;;;;5054433;28;19909;-75
2023/01/29 01:27:59;;;;;;;;;;;-2.80;99.90;;;;;;5054296;28;19920;-76
2023/01/29 01:30:24;;;;;;;;;;;-2.90;99.90;;;;;;5053053;28;20284;-75
2023/01/29 01:32:50;;;;;;;;;;;-2.90;99.90;;;;;;5053541;28;19908;-75
2023/01/29 01:35:16;;;;;;;;;;;-3.00;99.90;;;;;;5054248;28;19913;-75
2023/01/29 01:37:41;;;;;;;;;;;-3.00;99.90;;;;;;5054165;28;19951;-75
2023/01/29 01:40:16;;;;;;;;;;;-3.00;99.90;;;;;;5054176;28;19919;-75
2023/01/29 01:42:49;;;;;;;;;;;-3.00;99.90;;;;;;5054493;28;19909;-75
2023/01/29 01:45:17;;;;;;;;;;;-3.10;99.90;;;;;;5054062;28;20365;-75
2023/01/29 01:47:46;;;;;;;;;;;-3.20;99.90;;;;;;5053787;28;19912;-75
2023/01/29 01:50:33;;;;;;;;;;;-3.30;99.90;;;;;;5054005;28;19909;-75
2023/01/29 01:53:05;;;;;;;;;;;-3.30;99.90;;;;;;5054242;28;19909;-75
2023/01/29 01:55:33;;;;;;;;;;;-3.30;99.90;;;;;;5054019;28;20376;-75
2023/01/29 01:58:18;;;;;;;;;;;-3.40;99.90;;;;;;5053895;28;19913;-75
2023/01/29 02:00:44;;;;;;;;;;;-3.40;99.90;;;;;;5035514;28;19908;-75
2023/01/29 02:11:44;;;;;;;;;;;-3.60;99.90;;;;;;5053798;28;20284;-75
2023/01/29 02:14:11;;;;;;;;;;;-3.80;99.90;;;;;;5054078;28;19999;-75
2023/01/29 02:16:36;;;;;;;;;;;-3.90;99.90;;;;;;5053426;28;19909;-75
2023/01/29 02:19:04;;;;;;;;;;;-4.00;99.90;;;;;;5053721;28;20396;-75
2023/01/29 02:21:47;;;;;;;;;;;-4.10;99.90;;;;;;5053648;28;19916;-75
2023/01/29 02:24:29;;;;;;;;;;;-4.10;99.90;;;;;;5053606;28;20309;-75
2023/01/29 02:27:15;;;;;;;;;;;-4.10;99.90;;;;;;5053937;28;19931;-75
2023/01/29 02:30:19;;;;;;;;;;;-4.10;99.90;;;;;;5052808;28;20011;-75
2023/01/29 02:32:57;;;;;;;;;;;-4.20;99.90;;;;;;4972654;28;19917;-75
2023/01/29 02:35:43;;;;;;;;;;;-4.20;99.90;;;;;;4957266;28;19938;-75
2023/01/29 02:38:17;;;;;;;;;;;-4.30;99.90;;;;;;5027525;28;19913;-75
2023/01/29 02:40:45;;;;;;;;;;;-4.30;99.90;;;;;;5053466;28;19959;-75
2023/01/29 02:43:17;;;;;;;;;;;-4.40;99.90;;;;;;5053424;28;19915;-75
2023/01/29 02:45:48;;;;;;;;;;;-4.60;99.90;;;;;;5056042;28;20335;-75
2023/01/29 02:48:16;;;;;;;;;;;-4.80;99.90;;;;;;5057081;28;19912;-75
2023/01/29 02:51:00;;;;;;;;;;;-4.90;99.90;;;;;;5057403;28;19908;-75
2023/01/29 02:53:28;;;;;;;;;;;-5.00;99.90;;;;;;5057324;28;19955;-75
2023/01/29 02:56:00;;;;;;;;;;;-5.00;99.90;;;;;;5057647;28;19920;-75
2023/01/29 02:58:26;;;;;;;;;;;-5.00;99.90;;;;;;5057096;28;19919;-75
2023/01/29 03:00:52;;;;;;;;;;;-5.00;99.90;;;;;;5057197;28;19909;-75
2023/01/29 03:03:19;;;;;;;;;;;-5.00;99.90;;;;;;5056904;28;20310;-75
2023/01/29 03:05:52;;;;;;;;;;;-5.00;99.90;;;;;;5056119;28;19909;-75
2023/01/29 03:08:20;;;;;;;;;;;-5.00;99.90;;;;;;5057319;28;19909;-75
2023/01/29 03:10:58;;;;;;;;;;;-5.00;99.90;;;;;;5057001;28;19989;-75
2023/01/29 03:13:23;;;;;;;;;;;-5.00;99.90;;;;;;5057485;28;19920;-75
2023/01/29 03:16:00;;;;;;;;;;;-5.00;99.90;;;;;;5055606;28;19913;-75
2023/01/29 03:18:29;;;;;;;;;;;-5.00;99.90;;;;;;5056623;28;19919;-75
2023/01/29 03:20:59;;;;;;;;;;;-5.00;99.90;;;;;;5057099;28;19909;-75
2023/01/29 03:34:35;;;;;;;;;;;-5.00;99.90;;;;;;5057161;28;19921;-75
2023/01/29 03:37:06;;;;;;;;;;;-5.00;99.90;;;;;;5057162;28;19958;-75
2023/01/29 03:39:32;;;;;;;;;;;-4.90;99.90;;;;;;5056580;28;19913;-75
2023/01/29 03:42:08;;;;;;;;;;;-4.90;99.90;;;;;;5056443;28;19920;-75
2023/01/29 03:44:39;;;;;;;;;;;-5.00;99.90;;;;;;5056599;28;20374;-75
2023/01/29 03:47:13;;;;;;;;;;;-5.10;99.90;;;;;;5056108;28;20264;-75
2023/01/29 03:49:39;;;;;;;;;;;-5.20;99.90;;;;;;5056279;28;20288;-75
2023/01/29 03:52:14;;;;;;;;;;;-5.20;99.90;;;;;;5054977;28;19909;-75
2023/01/29 03:54:39;;;;;;;;;;;-5.20;99.90;;;;;;5056583;28;19912;-75
2023/01/29 03:57:19;;;;;;;;;;;-5.10;99.90;;;;;;5054329;28;19916;-75
2023/01/29 03:59:51;;;;;;;;;;;-5.10;99.90;;;;;;5056381;28;20280;-75
2023/01/29 04:02:29;;;;;;;;;;;-5.10;99.90;;;;;;5055810;28;19915;-75
2023/01/29 04:05:08;;;;;;;;;;;-5.00;99.90;;;;;;5056374;28;19915;-75
2023/01/29 04:07:35;;;;;;;;;;;-5.00;99.90;;;;;;5056256;28;19912;-75
2023/01/29 04:10:09;;;;;;;;;;;-4.90;99.90;;;;;;5055850;28;19909;-75
2023/01/29 04:12:37;;;;;;;;;;;-4.90;99.90;;;;;;5055794;28;20442;-75
2023/01/29 04:15:03;;;;;;;;;;;-4.90;99.90;;;;;;5055787;28;19959;-75
2023/01/29 04:17:35;;;;;;;;;;;-4.80;99.90;;;;;;5055477;28;19917;-75
2023/01/29 04:20:01;;;;;;;;;;;-4.80;99.90;;;;;;5055744;28;19913;-75
2023/01/29 04:22:30;;;;;;;;;;;-4.80;99.90;;;;;;5055993;28;19978;-75
2023/01/29 04:25:01;;;;;;;;;;;-4.80;99.90;;;;;;5056530;28;20317;-75
2023/01/29 04:27:45;;;;;;;;;;;-4.80;99.90;;;;;;5055912;28;19920;-75
2023/01/29 04:30:10;;;;;;;;;;;-4.70;99.90;;;;;;5055361;28;19924;-75
2023/01/29 04:32:56;;;;;;;;;;;-4.70;99.90;;;;;;5055214;28;19913;-75
2023/01/29 04:35:37;;;;;;;;;;;-4.70;99.90;;;;;;5055765;28;19916;-75
2023/01/29 04:38:25;;;;;;;;;;;-4.70;99.90;;;;;;5055645;28;20004;-75
2023/01/29 04:41:17;;;;;;;;;;;-4.70;99.90;;;;;;5055975;28;19935;-75
2023/01/29 04:43:58;;;;;;;;;;;-4.60;99.90;;;;;;5024460;28;19913;-75
2023/01/29 04:46:27;;;;;;;;;;;-4.60;99.90;;;;;;5055147;28;19913;-75
2023/01/29 04:48:55;;;;;;;;;;;-4.60;99.90;;;;;;5053624;28;19909;-75
2023/01/29 04:51:31;;;;;;;;;;;-4.60;99.90;;;;;;5055044;28;20379;-75
2023/01/29 04:54:02;;;;;;;;;;;-4.60;99.90;;;;;;5055399;28;19915;-75
2023/01/29 04:56:33;;;;;;;;;;;-4.50;99.90;;;;;;5055259;28;19913;-75
2023/01/29 04:59:12;;;;;;;;;;;-4.60;99.90;;;;;;5055124;28;19952;-75
2023/01/29 05:01:37;;;;;;;;;;;-4.50;99.90;;;;;;5055206;28;20357;-75
2023/01/29 05:04:06;;;;;;;;;;;-4.60;99.90;;;;;;5054655;28;19913;-75
2023/01/29 05:06:32;;;;;;;;;;;-4.60;99.90;;;;;;5055390;28;19909;-75
2023/01/29 05:08:59;;;;;;;;;;;-4.60;99.90;;;;;;5054056;28;19991;-75
2023/01/29 05:11:24;;;;;;;;;;;-4.60;99.90;;;;;;5055012;28;19908;-75
2023/01/29 05:13:50;;;;;;;;;;;-4.60;99.90;;;;;;5054697;28;20362;-75
2023/01/29 05:16:19;;;;;;;;;;;-4.60;99.90;;;;;;5054589;28;19917;-75
2023/01/29 05:18:44;;;;;;;;;;;-4.60;99.90;;;;;;5054197;28;19935;-75
2023/01/29 05:21:10;;;;;;;;;;;-4.60;99.90;;;;;;5054812;28;20309;-75
2023/01/29 05:23:36;;;;;;;;;;;-4.60;99.90;;;;;;5054513;28;20331;-74
2023/01/29 05:26:01;;;;;;;;;;;-4.70;99.90;;;;;;5055027;28;19952;-75
2023/01/29 05:28:27;;;;;;;;;;;-4.80;99.90;;;;;;5054474;28;20354;-75
2023/01/29 05:30:54;;;;;;;;;;;-4.80;99.90;;;;;;5054711;28;19912;-75
2023/01/29 05:33:20;;;;;;;;;;;-4.90;99.90;;;;;;5054241;28;19913;-75
2023/01/29 05:35:46;;;;;;;;;;;-4.80;99.90;;;;;;5054299;28;19928;-75
2023/01/29 05:38:12;;;;;;;;;;;-4.80;99.90;;;;;;5054076;28;20399;-75
2023/01/29 05:40:38;;;;;;;;;;;-4.90;99.90;;;;;;5054514;28;19913;-75
2023/01/29 05:43:04;;;;;;;;;;;-4.80;99.90;;;;;;5054191;28;19943;-75
2023/01/29 05:45:30;;;;;;;;;;;-4.90;99.90;;;;;;5052885;28;19913;-75
2023/01/29 05:47:57;;;;;;;;;;;-4.90;99.90;;;;;;5053959;28;19908;-75
2023/01/29 05:50:22;;;;;;;;;;;-4.90;99.90;;;;;;5054097;28;19940;-75
2023/01/29 05:52:48;;;;;;;;;;;-4.90;99.90;;;;;;5052883;28;19955;-75
2023/01/29 05:55:14;;;;;;;;;;;-4.90;99.90;;;;;;5054173;28;19924;-75
2023/01/29 05:57:39;;;;;;;;;;;-4.90;99.90;;;;;;5053948;28;20019;-75
2023/01/29 06:00:05;;;;;;;;;;;-4.90;99.90;;;;;;5054142;28;19916;-75
2023/01/29 06:02:31;;;;;;;;;;;-5.00;99.90;;;;;;5053870;28;19947;-75
2023/01/29 06:04:56;;;;;;;;;;;-5.00;99.90;;;;;;5053790;28;19909;-75
2023/01/29 06:07:22;;;;;;;;;;;-5.00;99.90;;;;;;5054149;28;19916;-75
2023/01/29 06:09:48;;;;;;;;;;;-5.00;99.90;;;;;;5053767;28;19916;-75
2023/01/29 06:12:13;;;;;;;;;;;-5.00;99.90;;;;;;5054065;28;19939;-75
2023/01/29 06:14:39;;;;;;;;;;;-5.10;99.90;;;;;;5053766;28;19931;-75
2023/01/29 06:17:04;;;;;;;;;;;-5.10;99.90;;;;;;5053670;28;19916;-75
2023/01/29 06:19:30;;;;;;;;;;;-5.10;99.90;;;;;;5053022;28;20040;-75
2023/01/29 06:21:55;;;;;;;;;;;-5.20;99.90;;;;;;5053599;28;19959;-75
2023/01/29 06:24:21;;;;;;;;;;;-5.20;99.90;;;;;;5053666;28;19920;-75
2023/01/29 06:26:47;;;;;;;;;;;-5.30;99.90;;;;;;5053955;28;19928;-75
2023/01/29 06:29:12;;;;;;;;;;;-5.30;99.90;;;;;;5053373;28;19916;-75
2023/01/29 06:31:39;;;;;;;;;;;-5.30;99.90;;;;;;5053530;28;19953;-74
2023/01/29 06:34:05;;;;;;;;;;;-5.30;99.90;;;;;;5053295;28;19916;-74
2023/01/29 06:36:31;;;;;;;;;;;-5.40;99.90;;;;;;5053494;28;20017;-74
2023/01/29 06:38:56;;;;;;;;;;;-5.50;99.90;;;;;;5053328;28;20011;-74
2023/01/29 06:41:24;;;;;;;;;;;-5.50;99.90;;;;;;5035850;28;19920;-74
2023/01/29 06:43:50;;;;;;;;;;;-5.50;99.90;;;;;;5053426;28;19913;-74
2023/01/29 06:46:16;;;;;;;;;;;-5.60;99.90;;;;;;5053606;28;20007;-74
2023/01/29 06:48:41;;;;;;;;;;;-5.60;99.90;;;;;;5053092;28;20333;-74
2023/01/29 06:51:07;;;;;;;;;;;-5.60;99.90;;;;;;5053352;28;19909;-74
2023/01/29 06:53:34;;;;;;;;;;;-5.70;99.90;;;;;;5052379;28;20001;-74
2023/01/29 06:55:59;;;;;;;;;;;-5.70;99.90;;;;;;5053327;28;19913;-74
2023/01/29 06:58:25;;;;;;;;;;;-5.80;99.90;;;;;;5051847;28;19924;-74
2023/01/29 07:00:51;;;;;;;;;;;-5.80;99.90;;;;;;5053537;28;19913;-74
2023/01/29 07:03:16;;;;;;;;;;;-5.80;99.90;;;;;;5053008;28;19915;-74
2023/01/29 07:05:42;;;;;;;;;;;-5.80;99.90;;;;;;5052079;28;19999;-74
2023/01/29 07:08:08;;;;;;;;;;;-5.80;99.90;;;;;;5053447;28;20344;-74
2023/01/29 07:10:34;;;;;;;;;;;-5.80;99.90;;;;;;5053473;28;19917;-75
2023/01/29 07:13:00;;;;;;;;;;;-5.80;99.90;;;;;;5053213;28;19936;-75
2023/01/29 07:15:26;;;;;;;;;;;-5.80;99.90;;;;;;5051865;28;20026;-75
2023/01/29 07:17:56;;;;;;;;;;;-5.80;99.90;;;;;;5053288;28;19917;-75
2023/01/29 07:20:22;;;;;;;;;;;-5.80;99.90;;;;;;5053080;28;19938;-75
2023/01/29 07:22:47;;;;;;;;;;;-5.90;99.90;;;;;;5053082;28;20349;-75
2023/01/29 07:25:13;;;;;;;;;;;-5.90;99.90;;;;;;5053052;28;19924;-75
2023/01/29 07:27:38;;;;;;;;;;;-5.90;99.90;;;;;;5053029;28;20471;-75
2023/01/29 07:30:04;;;;;;;;;;;-5.90;99.90;;;;;;5052872;28;20389;-75
2023/01/29 07:32:30;;;;;;;;;;;-6.00;99.90;;;;;;5056071;28;19913;-75
2023/01/29 07:34:55;;;;;;;;;;;-6.00;99.90;;;;;;5056580;28;20007;-75
2023/01/29 07:37:21;;;;;;;;;;;-6.10;99.90;;;;;;5056296;28;19944;-75
2023/01/29 07:39:46;;;;;;;;;;;-6.10;99.90;;;;;;5056539;28;19913;-75
2023/01/29 07:42:12;;;;;;;;;;;-6.20;99.90;;;;;;5056428;28;19920;-75
2023/01/29 07:44:38;;;;;;;;;;;-6.20;99.90;;;;;;5056206;28;19933;-75
2023/01/29 07:47:03;;;;;;;;;;;-6.20;99.90;;;;;;5055062;28;20004;-75
2023/01/29 07:49:29;;;;;;;;;;;-6.30;99.90;;;;;;5055935;28;19909;-75
2023/01/29 07:51:55;;;;;;;;;;;-6.30;99.90;;;;;;5056557;28;20416;-75
2023/01/29 07:54:20;;;;;;;;;;;-6.20;99.90;;;;;;5056302;28;19913;-75
2023/01/29 07:56:46;;;;;;;;;;;-6.10;99.90;;;;;;5056464;28;20016;-75
2023/01/29 07:59:11;;;;;;;;;;;-6.10;99.90;;;;;;5055964;28;19924;-75
2023/01/29 08:01:37;;;;;;;;;;;-6.10;99.90;;;;;;5056315;28;19919;-75
2023/01/29 08:04:03;;;;;;;;;;;-6.10;99.90;;;;;;5055791;28;19913;-75
2023/01/29 08:06:28;;;;;;;;;;;-6.10;99.90;;;;;;5056364;28;19913;-75
2023/01/29 08:08:56;;;;;;;;;;;-6.00;99.90;;;;;;5056009;28;20004;-75
2023/01/29 08:11:22;;;;;;;;;;;-6.00;99.90;;;;;;5056244;28;20378;-75
2023/01/29 08:13:47;;;;;;;;;;;-5.90;99.90;;;;;;5056122;28;19913;-75
2023/01/29 08:16:13;;;;;;;;;;;-5.90;99.90;;;;;;5054626;28;19913;-75
2023/01/29 08:18:42;;;;;;;;;;;-5.90;99.90;;;;;;5055731;28;20292;-75
2023/01/29 08:21:08;;;;;;;;;;;-5.80;99.90;;;;;;5056036;28;20007;-75
2023/01/29 08:23:34;;;;;;;;;;;-5.80;99.90;;;;;;5055927;28;20359;-75
2023/01/29 08:26:01;;;;;;;;;;;-5.70;99.90;;;;;;5055803;28;19913;-75
2023/01/29 08:28:26;;;;;;;;;;;-5.70;99.90;;;;;;5055475;28;19966;-75
2023/01/29 08:30:52;;;;;;;;;;;-5.60;99.90;;;;;;5055860;28;19913;-75
2023/01/29 08:33:17;;;;;;;;;;;-5.60;99.90;;;;;;5055271;28;19919;-75
2023/01/29 08:35:47;;;;;;;;;;;-5.50;99.90;;;;;;5055458;28;19921;-75
2023/01/29 08:38:13;;;;;;;;;;;-5.50;99.90;;;;;;5055575;28;19913;-75
2023/01/29 08:40:38;;;;;;;;;;;-5.40;99.90;;;;;;5055341;28;19913;-75
2023/01/29 08:43:05;;;;;;;;;;;-5.40;99.90;;;;;;5055510;28;19924;-75
2023/01/29 08:45:34;;;;;;;;;;;-5.30;99.90;;;;;;5055548;28;19909;-75
2023/01/29 08:48:00;;;;;;;;;;;-5.30;99.90;;;;;;5053695;28;19909;-75
2023/01/29 08:50:26;;;;;;;;;;;-5.20;99.90;;;;;;5053922;28;19935;-75
2023/01/29 08:52:55;;;;;;;;;;;-5.20;99.90;;;;;;5053694;28;19917;-75
2023/01/29 08:55:21;;;;;;;;;;;-5.10;99.90;;;;;;5045819;28;19908;-75
2023/01/29 08:57:46;;;;;;;;;;;-5.10;99.90;;;;;;5055484;28;19924;-74
2023/01/29 09:00:13;;;;;;;;;;;-5.00;99.90;;;;;;5055030;28;19945;-75
2023/01/29 09:02:38;;;;;;;;;;;-5.00;99.90;;;;;;5054893;28;19959;-75
2023/01/29 09:05:04;;;;;;;;;;;-5.00;99.90;;;;;;5054626;28;19913;-75
2023/01/29 09:07:30;;;;;;;;;;;-4.90;99.90;;;;;;5054864;28;19956;-75
2023/01/29 09:09:55;;;;;;;;;;;-4.90;99.90;;;;;;5052725;28;19917;-75
2023/01/29 09:12:21;;;;;;;;;;;-4.90;99.90;;;;;;5034934;28;20008;-74
2023/01/29 09:14:47;;;;;;;;;;;-4.80;99.90;;;;;;5038832;28;19909;-73
2023/01/29 09:17:12;;;;;;;;;;;-4.80;99.90;;;;;;5054906;28;19908;-74
2023/01/29 09:19:38;;;;;;;;;;;-4.70;99.90;;;;;;5052933;28;19970;-75
2023/01/29 09:22:03;;;;;;;;;;;-4.70;99.90;;;;;;5054827;28;19960;-74
2023/01/29 09:24:29;;;;;;;;;;;-4.60;99.90;;;;;;5054467;28;19917;-74
2023/01/29 09:26:55;;;;;;;;;;;-4.60;99.90;;;;;;5053825;28;19924;-74
2023/01/29 09:29:20;;;;;;;;;;;-4.50;99.90;;;;;;5054368;28;19929;-74
2023/01/29 09:31:46;;;;;;;;;;;-4.50;99.90;;;;;;5054400;28;19916;-74
2023/01/29 09:34:11;;;;;;;;;;;-4.40;99.90;;;;;;5054211;28;19963;-74
2023/01/29 09:36:37;;;;;;;;;;;-4.30;99.90;;;;;;5054563;28;19913;-74
2023/01/29 09:39:02;;;;;;;;;;;-4.30;99.90;;;;;;5053833;28;20269;-74
2023/01/29 09:41:28;;;;;;;;;;;-4.20;99.90;;;;;;5054497;28;19917;-74
2023/01/29 09:43:59;;;;;;;;;;;-4.10;99.90;;;;;;5054364;28;19962;-74
2023/01/29 09:46:42;;;;;;;;;;;-4.00;99.90;;;;;;5053988;28;19909;-74
2023/01/29 09:49:18;;;;;;;;;;;-4.00;99.90;;;;;;5053830;28;19909;-74
2023/01/29 09:51:45;;;;;;;;;;;-3.90;99.90;;;;;;5054055;28;20320;-74
2023/01/29 09:54:15;;;;;;;;;;;-3.80;99.90;;;;;;5053486;28;20015;-74
2023/01/29 09:56:41;;;;;;;;;;;-3.70;99.90;;;;;;5054606;28;19943;-74
2023/01/29 09:59:09;;;;;;;;;;;-3.60;99.90;;;;;;5053747;28;20381;-74
2023/01/29 10:01:44;;;;;;;;;;;-3.50;99.90;;;;;;5054034;28;19909;-74
2023/01/29 10:04:28;;;;;;;;;;;-3.40;99.90;;;;;;5052964;28;19920;-74
2023/01/29 10:07:04;;;;;;;;;;;-3.40;99.90;;;;;;5053025;28;19912;-74
2023/01/29 10:09:49;;;;;;;;;;;-3.30;99.90;;;;;;5053120;28;19909;-74
2023/01/29 10:12:35;;;;;;;;;;;-3.20;99.90;;;;;;5053109;28;20023;-73
2023/01/29 10:15:19;;;;;;;;;;;-3.10;99.90;;;;;;5042113;28;19917;-74
2023/01/29 10:17:51;;;;;;;;;;;-3.00;99.90;;;;;;5053889;28;19923;-74
2023/01/29 10:20:23;;;;;;;;;;;-2.90;99.90;;;;;;5053458;28;19914;-74
2023/01/29 10:22:59;;;;;;;;;;;-2.90;99.90;;;;;;5053513;28;19947;-74
2023/01/29 10:25:24;;;;;;;;;;;-2.80;99.90;;;;;;5053451;28;19960;-74
2023/01/29 10:27:54;;;;;;;;;;;-2.80;99.90;;;;;;5053042;28;20168;-74
2023/01/29 10:30:26;;;;;;;;;;;-2.70;99.90;;;;;;5051495;28;19924;-74
2023/01/29 10:32:53;;;;;;;;;;;-2.70;99.90;;;;;;5051441;28;19985;-74
2023/01/29 10:35:21;;;;;;;;;;;-2.60;99.90;;;;;;5053320;28;19913;-74
2023/01/29 10:37:47;;;;;;;;;;;-2.60;99.90;;;;;;5053364;28;19966;-74
2023/01/29 10:40:15;;;;;;;;;;;-2.40;99.90;;;;;;5053708;28;19908;-74
2023/01/29 10:42:45;;;;;;;;;;;-2.40;99.90;;;;;;5053731;28;20014;-74
2023/01/29 10:45:32;;;;;;;;;;;-2.30;99.90;;;;;;5053165;28;19909;-74
2023/01/29 10:48:02;;;;;;;;;;;-2.20;99.90;;;;;;5050522;28;20357;-74
2023/01/29 10:51:00;;;;;;;;;;;-2.10;99.90;;;;;;5050383;28;19960;-74
2023/01/29 10:53:41;;;;;;;;;;;-2.00;99.90;;;;;;5032406;28;19920;-74
2023/01/29 10:56:17;;;;;;;;;;;-1.90;99.90;;;;;;5048420;28;19947;-74
2023/01/29 10:58:47;;;;;;;;;;;-1.80;99.90;;;;;;5050004;28;20023;-74
2023/01/29 11:01:13;;;;;;;;;;;-1.70;99.90;;;;;;5051303;28;19909;-74
2023/01/29 11:03:39;;;;;;;;;;;-1.70;99.90;;;;;;5050050;28;20288;-74
2023/01/29 11:06:04;;;;;;;;;;;-1.60;99.90;;;;;;5053325;28;19917;-74
2023/01/29 11:08:42;;;;;;;;;;;-1.60;99.90;;;;;;5056835;28;20369;-74
2023/01/29 11:11:11;;;;;;;;;;;-1.50;99.90;;;;;;5056779;28;19908;-74
2023/01/29 11:13:43;;;;;;;;;;;-1.50;99.90;;;;;;5056830;28;19916;-74
2023/01/29 11:16:09;;;;;;;;;;;-1.40;99.90;;;;;;5056692;28;19960;-74
2023/01/29 11:18:48;;;;;;;;;;;-1.30;99.90;;;;;;5056069;28;20395;-74
2023/01/29 11:21:14;;;;;;;;;;;-1.20;99.90;;;;;;5056739;28;19915;-74
2023/01/29 11:23:39;;;;;;;;;;;-1.10;99.90;;;;;;5056662;28;20015;-74
2023/01/29 11:26:08;;;;;;;;;;;-1.10;99.90;;;;;;5055635;28;19920;-73
2023/01/29 11:28:34;;;;;;;;;;;-1.00;99.90;;;;;;5055048;28;19959;-74
2023/01/29 11:31:00;;;;;;;;;;;-0.90;99.90;;;;;;5056506;28;19909;-74
2023/01/29 11:33:27;;;;;;;;;;;-0.90;99.90;;;;;;5054959;28;19962;-73
2023/01/29 11:35:54;;;;;;;;;;;-0.80;99.90;;;;;;5054937;28;19920;-74
2023/01/29 11:38:27;;;;;;;;;;;-0.80;99.90;;;;;;5052953;28;19917;-74
2023/01/29 11:41:03;;;;;;;;;;;-0.60;99.90;;;;;;5056032;28;19909;-74
2023/01/29 11:43:32;;;;;;;;;;;-0.60;99.90;;;;;;5055051;28;19916;-73
2023/01/29 11:46:06;;;;;;;;;;;-0.50;99.90;;;;;;5056148;28;19912;-73
2023/01/29 11:48:42;;;;;;;;;;;-0.50;99.90;;;;;;5055810;28;19913;-73
2023/01/29 11:51:09;;;;;;;;;;;-0.40;99.90;;;;;;5056182;28;19909;-73
2023/01/29 11:53:37;;;;;;;;;;;-0.30;99.90;;;;;;5056061;28;20416;-73
2023/01/29 11:56:04;;;;;;;;;;;-0.30;99.90;;;;;;5055495;28;19912;-73
2023/01/29 11:58:31;;;;;;;;;;;-0.30;99.90;;;;;;5055796;28;19935;-74
2023/01/29 12:00:57;;;;;;;;;;;-0.20;99.90;;;;;;5054652;28;19909;-73
2023/01/29 12:03:29;;;;;;;;;;;-0.20;99.90;;;;;;5055721;28;20392;-74
2023/01/29 12:06:17;;;;;;;;;;;-0.10;99.90;;;;;;5055745;28;20292;-74
2023/01/29 12:08:43;;;;;;;;;;;0.00;99.90;;;;;;5044887;28;19959;-74
2023/01/29 12:11:14;;;;;;;;;;;0.10;99.90;;;;;;5055475;28;20348;-74
2023/01/29 12:13:42;;;;;;;;;;;0.10;99.90;;;;;;5055253;28;20034;-74
2023/01/29 12:16:10;;;;;;;;;;;0.20;99.90;;;;;;5055412;28;19916;-74
2023/01/29 12:18:38;;;;;;;;;;;0.20;99.90;;;;;;5053877;28;19913;-74
2023/01/29 12:21:09;;;;;;;;;;;0.20;99.90;;;;;;5055584;28;19936;-74
2023/01/29 12:23:47;;;;;;;;;;;0.30;99.90;;;;;;5055609;28;20296;-74
2023/01/29 12:26:18;;;;;;;;;;;0.30;99.90;;;;;;5055153;28;19909;-74
2023/01/29 12:29:01;;;;;;;;;;;0.40;99.90;;;;;;5055337;28;19921;-74
2023/01/29 12:31:48;;;;;;;;;;;0.50;99.90;;;;;;5055329;28;19909;-74
2023/01/29 12:34:33;;;;;;;;;;;0.50;99.90;;;;;;5055089;28;19960;-74
2023/01/29 12:37:08;;;;;;;;;;;0.60;99.90;;;;;;5055393;28;19908;-74
2023/01/29 12:39:35;;;;;;;;;;;0.70;99.90;;;;;;5054917;28;20304;-74
2023/01/29 12:42:16;;;;;;;;;;;0.80;99.90;;;;;;5054518;28;19913;-74
2023/01/29 12:44:42;;;;;;;;;;;0.90;99.90;;;;;;5055135;28;19908;-74
2023/01/29 12:47:14;;;;;;;;;;;0.90;99.90;;;;;;5055117;28;19908;-74
2023/01/29 12:49:40;;;;;;;;;;;1.00;99.90;;;;;;5054883;28;20289;-74
2023/01/29 12:52:22;;;;;;;;;;;1.10;99.90;;;;;;5054978;28;19913;-74
2023/01/29 12:54:59;;;;;;;;;;;1.20;99.90;;;;;;5054668;28;20320;-74
2023/01/29 12:57:31;;;;;;;;;;;1.30;99.90;;;;;;5054986;28;19920;-74
2023/01/29 13:00:00;;;;;;;;;;;1.40;99.90;;;;;;5054786;28;19913;-74
2023/01/29 13:02:31;;;;;;;;;;;1.40;99.90;;;;;;5054753;28;19995;-74
2023/01/29 13:05:06;;;;;;;;;;;1.50;99.90;;;;;;5054578;28;19908;-74
2023/01/29 13:07:36;;;;;;;;;;;1.50;99.90;;;;;;5054676;28;19909;-74
2023/01/29 13:10:06;;;;;;;;;;;1.50;99.90;;;;;;5054442;28;19964;-74
2023/01/29 13:12:32;;;;;;;;;;;1.60;99.90;;;;;;5054598;28;19909;-73
2023/01/29 13:15:00;;;;;;;;;;;1.70;99.90;;;;;;5054566;28;19960;-74
2023/01/29 13:17:30;;;;;;;;;;;1.70;99.90;;;;;;5054580;28;19909;-74
2023/01/29 13:20:19;;;;;;;;;;;1.70;99.90;;;;;;5054530;28;20353;-74
2023/01/29 13:22:45;;;;;;;;;;;1.60;99.90;;;;;;5043882;28;20378;-73
2023/01/29 13:25:15;;;;;;;;;;;1.60;99.90;;;;;;5052858;28;19954;-74
2023/01/29 13:27:41;;;;;;;;;;;1.50;99.90;;;;;;5054412;28;20107;-74
2023/01/29 13:30:07;;;;;;;;;;;1.50;99.90;;;;;;5053726;28;20070;-74
2023/01/29 13:32:34;;;;;;;;;;;1.50;99.90;;;;;;5054363;28;20400;-74
2023/01/29 13:35:02;;;;;;;;;;;1.60;99.90;;;;;;5054136;28;19909;-74
2023/01/29 13:37:32;;;;;;;;;;;1.60;99.90;;;;;;5054182;28;19913;-73
2023/01/29 13:39:59;;;;;;;;;;;1.60;99.90;;;;;;5054021;28;19913;-73
2023/01/29 13:42:45;;;;;;;;;;;1.70;99.90;;;;;;5054097;28;19913;-73
2023/01/29 13:45:22;;;;;;;;;;;1.60;99.90;;;;;;5054157;28;19962;-73
2023/01/29 13:47:48;;;;;;;;;;;1.50;99.90;;;;;;5054090;28;19909;-74
2023/01/29 13:50:17;;;;;;;;;;;1.40;99.90;;;;;;5053626;28;19917;-74
2023/01/29 13:52:57;;;;;;;;;;;1.40;99.90;;;;;;5053830;28;19909;-74
2023/01/29 13:55:30;;;;;;;;;;;1.40;99.90;;;;;;5053541;28;19915;-74
2023/01/29 13:57:57;;;;;;;;;;;1.40;99.90;;;;;;5053731;28;20016;-73
2023/01/29 14:00:31;;;;;;;;;;;1.40;99.90;;;;;;5053852;28;19935;-73
2023/01/29 14:03:00;;;;;;;;;;;1.40;99.90;;;;;;5053837;28;19915;-73
2023/01/29 14:05:28;;;;;;;;;;;1.40;99.90;;;;;;5051636;28;19909;-73
2023/01/29 14:07:58;;;;;;;;;;;1.30;99.90;;;;;;5053799;28;19912;-73
2023/01/29 14:10:24;;;;;;;;;;;1.30;99.90;;;;;;5053723;28;20361;-73
2023/01/29 14:12:51;;;;;;;;;;;1.20;99.90;;;;;;5053794;28;19958;-73
2023/01/29 14:15:20;;;;;;;;;;;1.20;99.90;;;;;;5053670;28;20337;-73
2023/01/29 14:17:53;;;;;;;;;;;1.10;99.90;;;;;;5053689;28;19949;-73
2023/01/29 14:20:22;;;;;;;;;;;1.10;99.90;;;;;;5053494;28;19919;-73
2023/01/29 14:22:55;;;;;;;;;;;1.10;99.90;;;;;;5053641;28;19955;-73
2023/01/29 14:25:23;;;;;;;;;;;1.10;99.90;;;;;;5053606;28;19909;-73
2023/01/29 14:27:48;;;;;;;;;;;1.10;99.90;;;;;;5054017;28;19923;-73
2023/01/29 14:30:16;;;;;;;;;;;1.00;99.90;;;;;;5053493;28;19925;-74
2023/01/29 14:32:45;;;;;;;;;;;1.00;99.90;;;;;;5053907;28;19909;-74
2023/01/29 14:35:19;;;;;;;;;;;1.00;99.90;;;;;;5053578;28;19996;-74
2023/01/29 14:37:47;;;;;;;;;;;1.00;99.90;;;;;;5054087;28;20361;-74
2023/01/29 14:40:13;;;;;;;;;;;0.90;99.90;;;;;;5055232;28;19916;-74
2023/01/29 14:42:44;;;;;;;;;;;0.90;99.90;;;;;;5059000;28;19913;-74
2023/01/29 14:45:24;;;;;;;;;;;0.80;99.90;;;;;;5058354;28;19951;-74
2023/01/29 14:47:51;;;;;;;;;;;0.80;99.90;;;;;;5057768;28;19909;-74
2023/01/29 14:50:32;;;;;;;;;;;0.80;99.90;;;;;;5057464;28;19908;-74
2023/01/29 14:53:02;;;;;;;;;;;0.70;99.90;;;;;;5058146;28;19987;-74
2023/01/29 14:55:27;;;;;;;;;;;0.60;99.90;;;;;;5057497;28;19909;-73
2023/01/29 14:57:55;;;;;;;;;;;0.60;99.90;;;;;;5057390;28;19913;-74